sensor_id;sensor_type;location;lat;lon;timestamp;pressure;altitude;pressure_sealevel;temperature;humidity
75219;BME280;63801;49.414;19.474;2023-03-31T00:01:04;93134.78;;;6.94;81.30
75219;BME280;63801;49.414;19.474;2023-03-31T00:03:05;93146.72;;;6.97;81.19
75219;BME280;63801;49.414;19.474;2023-03-31T00:05:09;93139.78;;;6.96;81.25
75219;BME280;63801;49.414;19.474;2023-03-31T00:07:09;93157.19;;;7.02;81.01
75219;BME280;63801;49.414;19.474;2023-03-31T00:09:13;93158.06;;;7.06;81.05
75219;BME280;63801;49.414;19.474;2023-03-31T00:11:14;93149.72;;;7.07;81.16
75219;BME280;63801;49.414;19.474;2023-03-31T00:13:15;93146.66;;;7.09;81.04
75219;BME280;63801;49.414;19.474;2023-03-31T00:15:15;93152.81;;;7.09;80.91
75219;BME280;63801;49.414;19.474;2023-03-31T00:17:16;93144.00;;;7.09;81.09
75219;BME280;63801;49.414;19.474;2023-03-31T00:19:16;93145.88;;;7.08;81.08
75219;BME280;63801;49.414;19.474;2023-03-31T00:21:21;93142.78;;;7.06;81.00
75219;BME280;63801;49.414;19.474;2023-03-31T00:23:27;93139.66;;;7.04;80.85
75219;BME280;63801;49.414;19.474;2023-03-31T00:25:28;93135.75;;;7.02;81.00
75219;BME280;63801;49.414;19.474;2023-03-31T00:27:28;93126.63;;;7.03;81.00
75219;BME280;63801;49.414;19.474;2023-03-31T00:29:29;93116.13;;;6.98;80.91
75219;BME280;63801;49.414;19.474;2023-03-31T00:31:31;93113.38;;;6.94;80.97
75219;BME280;63801;49.414;19.474;2023-03-31T00:33:31;93107.56;;;6.92;80.81
75219;BME280;63801;49.414;19.474;2023-03-31T00:35:34;93111.25;;;6.88;81.11
75219;BME280;63801;49.414;19.474;2023-03-31T00:37:34;93100.09;;;6.86;80.96
75219;BME280;63801;49.414;19.474;2023-03-31T00:39:35;93103.91;;;6.85;81.12
75219;BME280;63801;49.414;19.474;2023-03-31T00:41:37;93098.53;;;6.85;81.04
75219;BME280;63801;49.414;19.474;2023-03-31T00:43:38;93096.97;;;6.84;81.31
75219;BME280;63801;49.414;19.474;2023-03-31T00:45:38;93091.72;;;6.87;81.12
75219;BME280;63801;49.414;19.474;2023-03-31T00:47:54;93102.88;;;6.89;80.98
75219;BME280;63801;49.414;19.474;2023-03-31T00:49:57;93094.75;;;6.86;81.11
75219;BME280;63801;49.414;19.474;2023-03-31T00:52:14;93096.75;;;6.89;81.37
75219;BME280;63801;49.414;19.474;2023-03-31T00:54:16;93113.25;;;6.91;80.88
75219;BME280;63801;49.414;19.474;2023-03-31T00:56:18;93104.88;;;6.92;81.00
75219;BME280;63801;49.414;19.474;2023-03-31T00:58:19;93110.22;;;6.92;80.97
75219;BME280;63801;49.414;19.474;2023-03-31T01:00:21;93108.66;;;6.91;80.88
75219;BME280;63801;49.414;19.474;2023-03-31T01:02:23;93109.44;;;6.92;80.97
75219;BME280;63801;49.414;19.474;2023-03-31T01:04:26;93110.22;;;6.92;80.89
75219;BME280;63801;49.414;19.474;2023-03-31T01:06:28;93100.28;;;6.93;80.80
75219;BME280;63801;49.414;19.474;2023-03-31T01:08:31;93095.63;;;6.90;80.51
75219;BME280;63801;49.414;19.474;2023-03-31T01:10:33;93098.31;;;6.90;80.59
75219;BME280;63801;49.414;19.474;2023-03-31T01:12:43;93116.38;;;6.93;80.49
75219;BME280;63801;49.414;19.474;2023-03-31T01:14:44;93112.59;;;6.94;80.53
75219;BME280;63801;49.414;19.474;2023-03-31T01:16:45;93098.41;;;6.93;80.56
75219;BME280;63801;49.414;19.474;2023-03-31T01:18:45;93107.56;;;6.92;80.53
75219;BME280;63801;49.414;19.474;2023-03-31T01:23:30;93114.03;;;6.91;80.24
75219;BME280;63801;49.414;19.474;2023-03-31T01:28:11;93118.16;;;6.89;80.36
75219;BME280;63801;49.414;19.474;2023-03-31T01:30:53;93110.03;;;6.85;80.51
75219;BME280;63801;49.414;19.474;2023-03-31T01:33:32;93114.94;;;6.83;80.49
75219;BME280;63801;49.414;19.474;2023-03-31T01:47:50;93122.09;;;6.79;80.31
75219;BME280;63801;49.414;19.474;2023-03-31T01:49:59;93116.84;;;6.83;80.36
75219;BME280;63801;49.414;19.474;2023-03-31T01:52:05;93116.84;;;6.83;80.44
75219;BME280;63801;49.414;19.474;2023-03-31T01:54:17;93113.50;;;6.86;80.39
75219;BME280;63801;49.414;19.474;2023-03-31T01:56:45;93119.28;;;6.88;80.24
75219;BME280;63801;49.414;19.474;2023-03-31T02:00:54;93120.53;;;6.90;80.11
75219;BME280;63801;49.414;19.474;2023-03-31T02:05:13;93120.16;;;6.92;80.10
75219;BME280;63801;49.414;19.474;2023-03-31T02:07:23;93120.94;;;6.92;80.12
75219;BME280;63801;49.414;19.474;2023-03-31T02:09:34;93113.69;;;6.93;80.14
75219;BME280;63801;49.414;19.474;2023-03-31T02:11:38;93109.44;;;6.92;80.30
75219;BME280;63801;49.414;19.474;2023-03-31T02:13:41;93108.66;;;6.91;80.18
75219;BME280;63801;49.414;19.474;2023-03-31T02:15:47;93100.97;;;6.90;80.03
75219;BME280;63801;49.414;19.474;2023-03-31T02:17:52;93098.63;;;6.88;79.95
75219;BME280;63801;49.414;19.474;2023-03-31T02:19:56;93103.53;;;6.86;79.97
75219;BME280;63801;49.414;19.474;2023-03-31T02:21:57;93096.97;;;6.84;80.03
75219;BME280;63801;49.414;19.474;2023-03-31T02:24:01;93095.00;;;6.81;80.07
75219;BME280;63801;49.414;19.474;2023-03-31T02:26:08;93096.78;;;6.76;80.10
75219;BME280;63801;49.414;19.474;2023-03-31T02:28:12;93087.88;;;6.72;80.07
75219;BME280;63801;49.414;19.474;2023-03-31T02:30:15;93089.00;;;6.71;79.88
75219;BME280;63801;49.414;19.474;2023-03-31T02:32:36;93084.97;;;6.65;80.17
75219;BME280;63801;49.414;19.474;2023-03-31T02:34:36;93084.09;;;6.61;80.08
75219;BME280;63801;49.414;19.474;2023-03-31T02:36:37;93079.88;;;6.60;80.27
75219;BME280;63801;49.414;19.474;2023-03-31T02:38:43;93074.00;;;6.55;80.16
75219;BME280;63801;49.414;19.474;2023-03-31T02:40:45;93080.78;;;6.52;80.32
75219;BME280;63801;49.414;19.474;2023-03-31T02:42:45;93075.44;;;6.52;80.29
75219;BME280;63801;49.414;19.474;2023-03-31T02:44:46;93076.13;;;6.49;80.27
75219;BME280;63801;49.414;19.474;2023-03-31T02:46:46;93079.44;;;6.46;80.35
75219;BME280;63801;49.414;19.474;2023-03-31T02:48:49;93080.13;;;6.43;80.32
75219;BME280;63801;49.414;19.474;2023-03-31T02:53:29;93080.38;;;6.38;80.44
75219;BME280;63801;49.414;19.474;2023-03-31T02:56:24;93081.38;;;6.33;80.64
75219;BME280;63801;49.414;19.474;2023-03-31T02:58:35;93092.44;;;6.32;80.82
75219;BME280;63801;49.414;19.474;2023-03-31T03:09:43;93091.44;;;6.37;80.85
75219;BME280;63801;49.414;19.474;2023-03-31T03:16:31;93109.16;;;6.41;80.72
75219;BME280;63801;49.414;19.474;2023-03-31T03:18:34;93112.25;;;6.43;80.66
75219;BME280;63801;49.414;19.474;2023-03-31T03:20:35;93115.28;;;6.42;80.69
75219;BME280;63801;49.414;19.474;2023-03-31T03:22:36;93113.81;;;6.44;80.58
75219;BME280;63801;49.414;19.474;2023-03-31T03:24:37;93123.41;;;6.45;80.27
75219;BME280;63801;49.414;19.474;2023-03-31T03:26:38;93114.94;;;6.43;80.57
75219;BME280;63801;49.414;19.474;2023-03-31T03:28:39;93106.56;;;6.45;80.58
75219;BME280;63801;49.414;19.474;2023-03-31T03:30:39;93106.69;;;6.48;80.38
75219;BME280;63801;49.414;19.474;2023-03-31T03:32:40;93098.19;;;6.46;80.55
75219;BME280;63801;49.414;19.474;2023-03-31T03:34:40;93098.19;;;6.46;80.48
75219;BME280;63801;49.414;19.474;2023-03-31T03:36:41;93100.13;;;6.46;80.56
75219;BME280;63801;49.414;19.474;2023-03-31T03:38:41;93088.16;;;6.43;80.52
75219;BME280;63801;49.414;19.474;2023-03-31T03:40:41;93094.31;;;6.44;80.52
75219;BME280;63801;49.414;19.474;2023-03-31T03:42:42;93100.75;;;6.43;80.00
75219;BME280;63801;49.414;19.474;2023-03-31T03:44:42;93086.97;;;6.41;80.35
75219;BME280;63801;49.414;19.474;2023-03-31T03:46:42;93089.63;;;6.41;80.20
75219;BME280;63801;49.414;19.474;2023-03-31T03:48:43;93090.75;;;6.40;80.58
75219;BME280;63801;49.414;19.474;2023-03-31T03:50:46;93078.81;;;6.37;80.44
75219;BME280;63801;49.414;19.474;2023-03-31T03:52:47;93075.69;;;6.35;80.32
75219;BME280;63801;49.414;19.474;2023-03-31T03:54:47;93060.41;;;6.36;80.57
75219;BME280;63801;49.414;19.474;2023-03-31T03:56:48;93071.03;;;6.32;80.42
75219;BME280;63801;49.414;19.474;2023-03-31T03:58:48;93053.31;;;6.27;80.33
75219;BME280;63801;49.414;19.474;2023-03-31T04:00:49;93067.00;;;6.26;80.33
75219;BME280;63801;49.414;19.474;2023-03-31T04:02:50;93076.38;;;6.20;80.32
75219;BME280;63801;49.414;19.474;2023-03-31T04:04:51;93085.09;;;6.17;80.24
75219;BME280;63801;49.414;19.474;2023-03-31T04:06:51;93088.44;;;6.14;80.20
75219;BME280;63801;49.414;19.474;2023-03-31T04:08:52;93081.06;;;6.11;80.24
75219;BME280;63801;49.414;19.474;2023-03-31T04:10:52;93074.84;;;6.07;80.26
75219;BME280;63801;49.414;19.474;2023-03-31T04:12:52;93077.19;;;6.08;80.33
75219;BME280;63801;49.414;19.474;2023-03-31T04:14:53;93081.75;;;6.08;80.50
75219;BME280;63801;49.414;19.474;2023-03-31T04:16:53;93072.63;;;6.09;80.71
75219;BME280;63801;49.414;19.474;2023-03-31T04:18:55;93075.28;;;6.09;80.61
75219;BME280;63801;49.414;19.474;2023-03-31T04:20:58;93055.88;;;6.12;80.66
75219;BME280;63801;49.414;19.474;2023-03-31T04:23:04;93045.88;;;6.09;80.80
75219;BME280;63801;49.414;19.474;2023-03-31T04:25:10;93051.31;;;6.12;80.69
75219;BME280;63801;49.414;19.474;2023-03-31T04:27:16;93047.53;;;6.13;80.69
75219;BME280;63801;49.414;19.474;2023-03-31T04:29:17;93049.09;;;6.14;80.31
75219;BME280;63801;49.414;19.474;2023-03-31T04:31:19;93048.63;;;6.12;80.48
75219;BME280;63801;49.414;19.474;2023-03-31T04:33:24;93040.63;;;6.12;80.63
75219;BME280;63801;49.414;19.474;2023-03-31T04:35:27;93038.25;;;6.11;80.59
75219;BME280;63801;49.414;19.474;2023-03-31T04:37:41;93040.28;;;6.14;80.64
75219;BME280;63801;49.414;19.474;2023-03-31T04:39:41;93052.97;;;6.17;80.86
75219;BME280;63801;49.414;19.474;2023-03-31T04:41:45;93043.03;;;6.29;81.34
75219;BME280;63801;49.414;19.474;2023-03-31T04:43:46;93039.97;;;6.43;81.52
75219;BME280;63801;49.414;19.474;2023-03-31T04:45:46;93044.09;;;6.53;80.89
75219;BME280;63801;49.414;19.474;2023-03-31T04:47:47;93033.28;;;6.49;80.50
75219;BME280;63801;49.414;19.474;2023-03-31T04:49:47;93028.81;;;6.53;80.77
75219;BME280;63801;49.414;19.474;2023-03-31T04:51:47;93030.78;;;6.56;80.49
75219;BME280;63801;49.414;19.474;2023-03-31T04:53:47;93037.25;;;6.55;80.35
75219;BME280;63801;49.414;19.474;2023-03-31T04:55:48;93040.16;;;6.62;80.50
75219;BME280;63801;49.414;19.474;2023-03-31T04:57:49;93041.69;;;6.91;81.25
75219;BME280;63801;49.414;19.474;2023-03-31T04:59:50;93037.63;;;7.25;81.11
75219;BME280;63801;49.414;19.474;2023-03-31T05:01:50;93023.59;;;7.32;80.06
75219;BME280;63801;49.414;19.474;2023-03-31T05:03:51;93025.69;;;7.38;79.32
75219;BME280;63801;49.414;19.474;2023-03-31T05:05:51;93031.56;;;7.28;79.03
75219;BME280;63801;49.414;19.474;2023-03-31T05:07:52;93032.91;;;7.22;79.09
75219;BME280;63801;49.414;19.474;2023-03-31T05:09:52;93024.38;;;7.16;78.91
75219;BME280;63801;49.414;19.474;2023-03-31T05:11:52;93033.00;;;7.10;79.16
75219;BME280;63801;49.414;19.474;2023-03-31T05:13:52;93030.81;;;7.00;78.67
75219;BME280;63801;49.414;19.474;2023-03-31T05:15:53;93036.31;;;6.91;78.89
75219;BME280;63801;49.414;19.474;2023-03-31T05:17:53;93035.91;;;6.89;78.87
75219;BME280;63801;49.414;19.474;2023-03-31T05:19:54;93033.56;;;6.88;79.28
75219;BME280;63801;49.414;19.474;2023-03-31T05:21:54;93028.91;;;6.85;79.42
75219;BME280;63801;49.414;19.474;2023-03-31T05:23:55;93020.47;;;7.14;80.55
75219;BME280;63801;49.414;19.474;2023-03-31T05:25:56;93018.66;;;7.81;81.11
75219;BME280;63801;49.414;19.474;2023-03-31T05:27:57;93022.56;;;8.53;78.88
75219;BME280;63801;49.414;19.474;2023-03-31T05:29:58;93014.75;;;9.06;77.30
75219;BME280;63801;49.414;19.474;2023-03-31T05:31:59;93012.66;;;9.37;75.86
75219;BME280;63801;49.414;19.474;2023-03-31T05:33:59;93008.88;;;9.42;74.93
75219;BME280;63801;49.414;19.474;2023-03-31T05:36:00;93014.41;;;9.30;74.82
75219;BME280;63801;49.414;19.474;2023-03-31T05:38:00;93020.47;;;9.23;75.87
75219;BME280;63801;49.414;19.474;2023-03-31T05:40:00;93015.63;;;9.78;76.67
75219;BME280;63801;49.414;19.474;2023-03-31T05:42:02;93014.44;;;10.02;74.30
75219;BME280;63801;49.414;19.474;2023-03-31T05:44:04;93004.69;;;9.93;73.67
75219;BME280;63801;49.414;19.474;2023-03-31T05:46:05;92999.69;;;9.69;73.45
75219;BME280;63801;49.414;19.474;2023-03-31T05:48:05;92998.47;;;9.40;73.24
75219;BME280;63801;49.414;19.474;2023-03-31T05:50:06;92991.06;;;9.11;73.43
75219;BME280;63801;49.414;19.474;2023-03-31T05:52:08;92997.41;;;8.80;73.55
75219;BME280;63801;49.414;19.474;2023-03-31T05:54:09;93003.97;;;8.83;75.37
75219;BME280;63801;49.414;19.474;2023-03-31T05:56:09;93006.34;;;9.53;75.55
75219;BME280;63801;49.414;19.474;2023-03-31T05:58:11;93008.91;;;10.44;74.08
75219;BME280;63801;49.414;19.474;2023-03-31T06:00:11;93013.00;;;11.31;71.84
75219;BME280;63801;49.414;19.474;2023-03-31T06:02:12;92992.38;;;11.96;70.21
75219;BME280;63801;49.414;19.474;2023-03-31T06:04:13;93007.88;;;12.61;68.87
75219;BME280;63801;49.414;19.474;2023-03-31T06:06:13;93008.25;;;12.63;66.83
75219;BME280;63801;49.414;19.474;2023-03-31T06:08:15;93001.78;;;12.85;68.32
75219;BME280;63801;49.414;19.474;2023-03-31T06:10:15;92994.22;;;13.37;65.99
75219;BME280;63801;49.414;19.474;2023-03-31T06:12:16;93006.28;;;13.68;64.13
75219;BME280;63801;49.414;19.474;2023-03-31T06:14:16;93000.88;;;13.78;63.42
75219;BME280;63801;49.414;19.474;2023-03-31T06:16:17;93015.22;;;13.93;62.41
75219;BME280;63801;49.414;19.474;2023-03-31T06:18:18;92997.41;;;14.24;61.67
75219;BME280;63801;49.414;19.474;2023-03-31T06:20:18;92998.91;;;14.53;60.55
75219;BME280;63801;49.414;19.474;2023-03-31T06:22:18;93013.19;;;14.78;60.03
75219;BME280;63801;49.414;19.474;2023-03-31T06:24:18;93009.66;;;14.89;58.82
75219;BME280;63801;49.414;19.474;2023-03-31T06:26:19;93002.31;;;14.78;58.50
75219;BME280;63801;49.414;19.474;2023-03-31T06:28:20;93002.00;;;14.62;58.22
75219;BME280;63801;49.414;19.474;2023-03-31T06:30:20;92996.94;;;14.71;58.60
75219;BME280;63801;49.414;19.474;2023-03-31T06:32:20;92999.94;;;14.98;58.30
75219;BME280;63801;49.414;19.474;2023-03-31T06:34:21;93013.81;;;15.18;58.02
75219;BME280;63801;49.414;19.474;2023-03-31T06:36:21;92994.66;;;15.46;57.23
75219;BME280;63801;49.414;19.474;2023-03-31T06:38:22;93006.84;;;15.90;56.99
75219;BME280;63801;49.414;19.474;2023-03-31T06:40:23;93007.69;;;16.31;56.07
75219;BME280;63801;49.414;19.474;2023-03-31T06:42:23;93015.34;;;16.43;56.06
75219;BME280;63801;49.414;19.474;2023-03-31T06:44:23;93013.16;;;16.69;54.48
75219;BME280;63801;49.414;19.474;2023-03-31T06:46:24;93004.75;;;16.52;53.69
75219;BME280;63801;49.414;19.474;2023-03-31T06:48:25;93015.34;;;16.43;54.11
75219;BME280;63801;49.414;19.474;2023-03-31T06:50:25;93015.09;;;16.27;53.44
75219;BME280;63801;49.414;19.474;2023-03-31T06:52:26;93003.81;;;16.29;53.50
75219;BME280;63801;49.414;19.474;2023-03-31T06:54:26;93024.69;;;15.91;52.97
75219;BME280;63801;49.414;19.474;2023-03-31T06:56:27;93012.09;;;15.59;53.71
75219;BME280;63801;49.414;19.474;2023-03-31T06:58:27;93005.59;;;15.32;54.55
75219;BME280;63801;49.414;19.474;2023-03-31T07:00:27;93008.97;;;15.61;55.22
75219;BME280;63801;49.414;19.474;2023-03-31T07:02:28;93005.22;;;15.99;53.66
75219;BME280;63801;49.414;19.474;2023-03-31T07:04:28;93006.38;;;15.98;54.12
75219;BME280;63801;49.414;19.474;2023-03-31T07:06:29;93010.78;;;16.30;55.17
75219;BME280;63801;49.414;19.474;2023-03-31T07:08:30;92994.75;;;16.83;53.52
75219;BME280;63801;49.414;19.474;2023-03-31T07:10:31;92996.41;;;16.74;52.55
75219;BME280;63801;49.414;19.474;2023-03-31T07:12:32;93014.09;;;16.07;52.56
75219;BME280;63801;49.414;19.474;2023-03-31T07:14:33;93009.75;;;15.61;53.96
75219;BME280;63801;49.414;19.474;2023-03-31T07:16:33;92995.22;;;15.16;53.60
75219;BME280;63801;49.414;19.474;2023-03-31T07:18:35;93010.88;;;14.80;54.66
75219;BME280;63801;49.414;19.474;2023-03-31T07:20:36;93003.19;;;14.54;55.12
75219;BME280;63801;49.414;19.474;2023-03-31T07:22:38;93005.13;;;14.29;55.51
75219;BME280;63801;49.414;19.474;2023-03-31T07:24:40;93007.84;;;14.15;56.87
75219;BME280;63801;49.414;19.474;2023-03-31T07:26:40;93007.06;;;13.86;55.90
75219;BME280;63801;49.414;19.474;2023-03-31T07:28:41;93008.50;;;13.13;56.78
75219;BME280;63801;49.414;19.474;2023-03-31T07:30:42;93011.31;;;12.58;58.53
75219;BME280;63801;49.414;19.474;2023-03-31T07:32:44;93015.66;;;12.11;59.52
75219;BME280;63801;49.414;19.474;2023-03-31T07:34:45;93031.47;;;11.65;59.91
75219;BME280;63801;49.414;19.474;2023-03-31T07:36:45;93029.84;;;11.20;61.46
75219;BME280;63801;49.414;19.474;2023-03-31T07:38:46;93017.44;;;10.79;62.47
75219;BME280;63801;49.414;19.474;2023-03-31T07:40:48;93028.16;;;10.46;63.89
75219;BME280;63801;49.414;19.474;2023-03-31T07:42:49;93024.38;;;10.20;64.46
75219;BME280;63801;49.414;19.474;2023-03-31T07:44:51;93019.03;;;10.01;65.20
75219;BME280;63801;49.414;19.474;2023-03-31T07:46:51;93019.25;;;9.89;65.62
75219;BME280;63801;49.414;19.474;2023-03-31T07:48:52;93017.09;;;9.75;65.64
75219;BME280;63801;49.414;19.474;2023-03-31T07:50:53;93015.78;;;9.66;66.33
75219;BME280;63801;49.414;19.474;2023-03-31T07:52:54;93015.69;;;9.59;66.60
75219;BME280;63801;49.414;19.474;2023-03-31T07:54:54;93004.78;;;9.52;67.18
75219;BME280;63801;49.414;19.474;2023-03-31T07:56:55;93014.84;;;9.55;67.28
75219;BME280;63801;49.414;19.474;2023-03-31T07:58:55;93002.97;;;9.56;67.36
75219;BME280;63801;49.414;19.474;2023-03-31T08:00:56;93014.84;;;9.55;67.59
75219;BME280;63801;49.414;19.474;2023-03-31T08:02:56;93012.75;;;9.44;68.09
75219;BME280;63801;49.414;19.474;2023-03-31T08:04:57;93007.31;;;9.41;68.40
75219;BME280;63801;49.414;19.474;2023-03-31T08:06:57;92997.69;;;9.40;68.37
75219;BME280;63801;49.414;19.474;2023-03-31T08:08:57;93004.50;;;9.34;68.73
75219;BME280;63801;49.414;19.474;2023-03-31T08:10:58;92999.78;;;9.27;69.07
75219;BME280;63801;49.414;19.474;2023-03-31T08:12:58;93001.19;;;9.21;69.19
75219;BME280;63801;49.414;19.474;2023-03-31T08:14:58;92994.59;;;9.15;69.61
75219;BME280;63801;49.414;19.474;2023-03-31T08:16:59;92987.06;;;9.24;70.13
75219;BME280;63801;49.414;19.474;2023-03-31T08:18:59;92983.91;;;9.41;70.29
75219;BME280;63801;49.414;19.474;2023-03-31T08:21:00;92973.88;;;9.65;69.45
75219;BME280;63801;49.414;19.474;2023-03-31T08:23:01;92965.56;;;9.73;69.64
75219;BME280;63801;49.414;19.474;2023-03-31T08:25:03;92976.34;;;10.00;70.17
75219;BME280;63801;49.414;19.474;2023-03-31T08:27:04;92959.53;;;10.66;69.99
75219;BME280;63801;49.414;19.474;2023-03-31T08:29:04;92958.50;;;11.14;68.02
75219;BME280;63801;49.414;19.474;2023-03-31T08:31:06;92944.91;;;11.44;66.70
75219;BME280;63801;49.414;19.474;2023-03-31T08:33:07;92958.06;;;11.53;66.23
75219;BME280;63801;49.414;19.474;2023-03-31T08:35:08;92955.09;;;11.65;66.54
75219;BME280;63801;49.414;19.474;2023-03-31T08:37:09;92955.13;;;12.20;65.82
75219;BME280;63801;49.414;19.474;2023-03-31T08:39:09;92940.34;;;12.89;64.61
75219;BME280;63801;49.414;19.474;2023-03-31T08:43:40;92922.25;;;14.21;60.17
75219;BME280;63801;49.414;19.474;2023-03-31T08:45:45;92931.16;;;14.21;59.20
75219;BME280;63801;49.414;19.474;2023-03-31T08:47:49;92925.78;;;13.97;59.54
75219;BME280;63801;49.414;19.474;2023-03-31T08:49:54;92926.97;;;13.71;59.42
75219;BME280;63801;49.414;19.474;2023-03-31T08:51:58;92913.41;;;13.46;59.27
75219;BME280;63801;49.414;19.474;2023-03-31T08:56:16;92917.19;;;12.95;60.36
75219;BME280;63801;49.414;19.474;2023-03-31T08:58:39;92906.22;;;12.53;60.67
75219;BME280;63801;49.414;19.474;2023-03-31T09:00:53;92895.34;;;12.32;60.98
75219;BME280;63801;49.414;19.474;2023-03-31T09:03:09;92908.06;;;12.31;61.30
75219;BME280;63801;49.414;19.474;2023-03-31T09:05:48;92909.97;;;12.27;61.38
75219;BME280;63801;49.414;19.474;2023-03-31T09:12:10;92897.19;;;12.17;61.88
75219;BME280;63801;49.414;19.474;2023-03-31T09:16:41;92888.38;;;12.31;61.07
75219;BME280;63801;49.414;19.474;2023-03-31T09:18:44;92888.41;;;12.34;60.80
75219;BME280;63801;49.414;19.474;2023-03-31T09:20:50;92891.41;;;12.15;60.63
75219;BME280;63801;49.414;19.474;2023-03-31T09:22:59;92882.88;;;12.09;60.97
75219;BME280;63801;49.414;19.474;2023-03-31T09:25:06;92882.56;;;12.25;61.38
75219;BME280;63801;49.414;19.474;2023-03-31T09:27:11;92885.31;;;12.36;60.93
75219;BME280;63801;49.414;19.474;2023-03-31T09:29:15;92870.66;;;12.37;61.05
75219;BME280;63801;49.414;19.474;2023-03-31T09:31:19;92874.50;;;12.39;60.35
75219;BME280;63801;49.414;19.474;2023-03-31T09:33:29;92882.59;;;12.36;60.13
75219;BME280;63801;49.414;19.474;2023-03-31T09:35:33;92860.97;;;12.29;60.61
75219;BME280;63801;49.414;19.474;2023-03-31T09:37:33;92865.25;;;12.37;60.87
75219;BME280;63801;49.414;19.474;2023-03-31T09:39:33;92858.34;;;12.50;60.84
75219;BME280;63801;49.414;19.474;2023-03-31T09:41:34;92865.31;;;12.54;60.54
75219;BME280;63801;49.414;19.474;2023-03-31T09:43:35;92861.41;;;12.45;60.52
75219;BME280;63801;49.414;19.474;2023-03-31T09:45:37;92864.50;;;12.43;60.84
75219;BME280;63801;49.414;19.474;2023-03-31T09:47:40;92861.38;;;12.38;60.41
75219;BME280;63801;49.414;19.474;2023-03-31T09:49:45;92849.00;;;12.30;60.73
75219;BME280;63801;49.414;19.474;2023-03-31T09:51:55;92852.88;;;12.29;60.78
75219;BME280;63801;49.414;19.474;2023-03-31T09:54:03;92851.72;;;12.30;61.55
75219;BME280;63801;49.414;19.474;2023-03-31T09:56:08;92845.13;;;12.27;60.97
75219;BME280;63801;49.414;19.474;2023-03-31T09:58:16;92843.53;;;12.12;60.77
75219;BME280;63801;49.414;19.474;2023-03-31T10:00:19;92835.78;;;12.03;60.94
75219;BME280;63801;49.414;19.474;2023-03-31T10:02:36;92828.03;;;11.95;61.70
75219;BME280;63801;49.414;19.474;2023-03-31T10:04:44;92828.03;;;11.98;61.73
75219;BME280;63801;49.414;19.474;2023-03-31T10:06:45;92825.69;;;11.93;61.79
75219;BME280;63801;49.414;19.474;2023-03-31T10:08:51;92816.03;;;11.96;61.86
75219;BME280;63801;49.414;19.474;2023-03-31T10:10:56;92821.88;;;12.01;61.48
75219;BME280;63801;49.414;19.474;2023-03-31T10:12:57;92811.00;;;11.91;61.48
75219;BME280;63801;49.414;19.474;2023-03-31T10:15:18;92815.22;;;11.81;61.77
75219;BME280;63801;49.414;19.474;2023-03-31T10:17:21;92814.44;;;11.77;61.94
75219;BME280;63801;49.414;19.474;2023-03-31T10:19:25;92818.31;;;11.83;62.13
75219;BME280;63801;49.414;19.474;2023-03-31T10:21:27;92811.41;;;11.89;61.96
75219;BME280;63801;49.414;19.474;2023-03-31T10:23:34;92797.91;;;11.93;61.84
75219;BME280;63801;49.414;19.474;2023-03-31T10:25:35;92798.72;;;12.04;61.79
75219;BME280;63801;49.414;19.474;2023-03-31T10:27:38;92811.84;;;12.05;62.24
75219;BME280;63801;49.414;19.474;2023-03-31T10:29:39;92795.25;;;12.07;61.96
75219;BME280;63801;49.414;19.474;2023-03-31T10:31:40;92796.44;;;12.13;61.94
75219;BME280;63801;49.414;19.474;2023-03-31T10:33:43;92802.22;;;12.11;61.24
75219;BME280;63801;49.414;19.474;2023-03-31T10:35:49;92794.44;;;11.92;61.23
75219;BME280;63801;49.414;19.474;2023-03-31T10:38:02;92790.16;;;11.91;61.46
75219;BME280;63801;49.414;19.474;2023-03-31T10:40:13;92782.06;;;11.84;61.91
75219;BME280;63801;49.414;19.474;2023-03-31T10:42:21;92784.34;;;11.82;61.66
75219;BME280;63801;49.414;19.474;2023-03-31T10:44:36;92779.34;;;11.81;62.04
75219;BME280;63801;49.414;19.474;2023-03-31T10:46:48;92771.59;;;11.79;62.10
75219;BME280;63801;49.414;19.474;2023-03-31T10:48:51;92782.78;;;11.78;62.13
75219;BME280;63801;49.414;19.474;2023-03-31T10:50:53;92783.91;;;11.73;62.01
75219;BME280;63801;49.414;19.474;2023-03-31T10:53:01;92780.75;;;11.64;61.46
75219;BME280;63801;49.414;19.474;2023-03-31T10:55:10;92780.75;;;11.64;61.80
75219;BME280;63801;49.414;19.474;2023-03-31T10:57:11;92763.38;;;11.58;61.73
75219;BME280;63801;49.414;19.474;2023-03-31T11:01:29;92770.41;;;11.73;61.98
75219;BME280;63801;49.414;19.474;2023-03-31T11:07:57;92782.47;;;11.90;61.72
75219;BME280;63801;49.414;19.474;2023-03-31T11:10:22;92755.47;;;11.93;61.81
75219;BME280;63801;49.414;19.474;2023-03-31T11:12:34;92760.88;;;11.93;61.69
75219;BME280;63801;49.414;19.474;2023-03-31T11:16:57;92760.09;;;11.96;61.51
75219;BME280;63801;49.414;19.474;2023-03-31T11:19:13;92741.91;;;11.86;61.35
75219;BME280;63801;49.414;19.474;2023-03-31T11:23:49;92746.22;;;12.01;62.24
75219;BME280;63801;49.414;19.474;2023-03-31T11:25:59;92729.28;;;12.08;61.58
75219;BME280;63801;49.414;19.474;2023-03-31T11:28:23;92737.41;;;12.11;61.24
75219;BME280;63801;49.414;19.474;2023-03-31T11:37:13;92731.25;;;12.29;60.37
75219;BME280;63801;49.414;19.474;2023-03-31T11:41:40;92727.84;;;12.74;60.61
75219;BME280;63801;49.414;19.474;2023-03-31T11:43:48;92723.94;;;12.93;59.77
75219;BME280;63801;49.414;19.474;2023-03-31T11:45:54;92722.41;;;12.99;59.95
75219;BME280;63801;49.414;19.474;2023-03-31T11:48:05;92712.38;;;13.17;59.47
75219;BME280;63801;49.414;19.474;2023-03-31T11:50:12;92710.81;;;13.13;59.26
75219;BME280;63801;49.414;19.474;2023-03-31T11:52:17;92711.56;;;12.99;59.31
75219;BME280;63801;49.414;19.474;2023-03-31T11:54:32;92703.88;;;12.90;59.80
75219;BME280;63801;49.414;19.474;2023-03-31T11:56:37;92713.16;;;12.82;59.39
75219;BME280;63801;49.414;19.474;2023-03-31T11:58:42;92717.78;;;12.71;59.42
75219;BME280;63801;49.414;19.474;2023-03-31T12:00:55;92704.66;;;12.55;59.51